createdAt,value
2023-01-17T00:00:14.725Z,99156.22
2023-01-17T00:04:46.380Z,99148.69
2023-01-17T00:09:21.511Z,99154.63
2023-01-17T00:13:33.872Z,99162.31
2023-01-17T00:17:47.466Z,99156.88
2023-01-17T00:22:17.983Z,99147.94
2023-01-17T00:26:31.664Z,99135.91
2023-01-17T00:30:43.904Z,99132.19
2023-01-17T00:34:56.125Z,99116.88
2023-01-17T00:39:08.344Z,99107.63
2023-01-17T00:43:41.510Z,99091.78
2023-01-17T00:48:12.229Z,99073.28
2023-01-17T00:52:43.029Z,99100.88
2023-01-17T00:57:14.055Z,99114.59
2023-01-17T01:01:44.856Z,99111.31
2023-01-17T01:06:15.751Z,99115.41
2023-01-17T01:10:46.728Z,99113.06
2023-01-17T01:15:17.408Z,99101.84
2023-01-17T01:19:48.128Z,99120.38
2023-01-17T01:24:18.592Z,99128.47
2023-01-17T01:28:49.188Z,99132.81
2023-01-17T01:33:20.339Z,99142.19
2023-01-17T01:37:32.698Z,99141.22
2023-01-17T01:41:45.023Z,99159.38
2023-01-17T01:45:58.999Z,99158.78
2023-01-17T01:50:13.318Z,99161.78
2023-01-17T01:54:52.231Z,99132.91
2023-01-17T01:59:07.426Z,99160.63
2023-01-17T02:03:26.241Z,99144.44
2023-01-17T02:07:45.281Z,99137.44
2023-01-17T02:11:57.893Z,99156.75
2023-01-17T02:16:17.123Z,99158.91
2023-01-17T02:20:58.924Z,99156.31
2023-01-17T02:25:20.248Z,99153.34
2023-01-17T02:30:00.488Z,99161.66
2023-01-17T02:35:02.176Z,99148.19
2023-01-17T02:39:18.106Z,99142.41
2023-01-17T02:43:31.835Z,99148.00
2023-01-17T02:47:44.294Z,99161.66
2023-01-17T02:52:18.008Z,99165.78
2023-01-17T02:57:07.155Z,99168.13
2023-01-17T03:01:58.432Z,99168.81
2023-01-17T03:06:14.195Z,99169.47
2023-01-17T03:10:26.777Z,99166.53
2023-01-17T03:14:39.158Z,99165.94
2023-01-17T03:18:51.662Z,99173.69
2023-01-17T03:23:03.986Z,99158.22
2023-01-17T03:27:16.438Z,99168.03
2023-01-17T03:31:28.756Z,99164.69
2023-01-17T03:35:41.078Z,99167.78
2023-01-17T03:39:53.568Z,99176.97
2023-01-17T03:44:06.032Z,99177.72
2023-01-17T03:48:18.959Z,99175.38
2023-01-17T03:52:31.373Z,99162.72
2023-01-17T03:56:43.701Z,99171.25
2023-01-17T04:00:55.971Z,99176.09
2023-01-17T04:05:08.851Z,99167.63
2023-01-17T04:09:21.115Z,99170.56
2023-01-17T04:13:33.581Z,99164.53
2023-01-17T04:17:45.817Z,99168.69
2023-01-17T04:21:58.135Z,99177.63
2023-01-17T04:26:12.483Z,99194.75
2023-01-17T04:30:25.048Z,99202.59
2023-01-17T04:34:37.354Z,99201.88
2023-01-17T04:38:49.712Z,99176.34
2023-01-17T04:43:02.035Z,99178.53
2023-01-17T04:47:14.310Z,99193.56
2023-01-17T04:51:26.615Z,99193.03
2023-01-17T04:55:38.938Z,99195.19
2023-01-17T04:59:51.464Z,99193.59
2023-01-17T05:04:03.821Z,99202.22
2023-01-17T05:08:16.272Z,99202.81
2023-01-17T05:12:29.028Z,99200.81
2023-01-17T05:16:41.369Z,99205.16
2023-01-17T05:20:53.734Z,99208.72
2023-01-17T05:25:06.472Z,99214.84
2023-01-17T05:29:18.803Z,99208.50
2023-01-17T05:33:31.147Z,99213.41
2023-01-17T05:37:49.369Z,99201.75
2023-01-17T05:42:01.679Z,99218.88
2023-01-17T05:46:13.987Z,99234.09
2023-01-17T05:50:28.706Z,99249.53
2023-01-17T05:54:40.902Z,99249.91
2023-01-17T05:58:53.141Z,99253.81
2023-01-17T06:03:05.906Z,99258.13
2023-01-17T06:07:18.314Z,99247.31
2023-01-17T06:11:30.523Z,99262.09
2023-01-17T06:15:43.032Z,99263.28
2023-01-17T06:19:55.362Z,99257.22
2023-01-17T06:24:07.829Z,99254.28
2023-01-17T06:28:22.051Z,99256.19
2023-01-17T06:32:34.464Z,99267.19
2023-01-17T06:36:46.820Z,99264.81
2023-01-17T06:41:00.692Z,99268.00
2023-01-17T06:45:13.275Z,99273.59
2023-01-17T06:49:25.605Z,99273.00
2023-01-17T06:53:38.046Z,99285.28
2023-01-17T06:57:50.933Z,99284.41
2023-01-17T07:02:03.317Z,99291.97
2023-01-17T07:06:15.721Z,99286.16
2023-01-17T07:10:28.094Z,99274.84
2023-01-17T07:14:40.436Z,99287.34
2023-01-17T07:18:57.187Z,99291.47
2023-01-17T07:23:09.548Z,99293.03
2023-01-17T07:27:21.876Z,99303.38
2023-01-17T07:31:36.900Z,99307.81
2023-01-17T07:35:49.174Z,99299.94
2023-01-17T07:40:02.750Z,99301.38
2023-01-17T07:44:15.016Z,99305.28
2023-01-17T07:48:27.500Z,99309.38
2023-01-17T07:52:39.823Z,99302.16
2023-01-17T07:56:53.320Z,99287.44
2023-01-17T08:01:10.731Z,99282.22
2023-01-17T08:05:23.512Z,99288.09
2023-01-17T08:09:35.844Z,99286.84
2023-01-17T08:13:48.893Z,99303.13
2023-01-17T08:18:01.224Z,99305.19
2023-01-17T08:22:13.669Z,99288.75
2023-01-17T08:26:25.890Z,99289.88
2023-01-17T08:30:38.475Z,99298.97
2023-01-17T08:34:50.865Z,99297.75
2023-01-17T08:39:03.230Z,99307.09
2023-01-17T08:43:15.774Z,99312.63
2023-01-17T08:47:28.290Z,99320.25
2023-01-17T08:51:41.357Z,99323.22
2023-01-17T08:56:01.400Z,99310.34
2023-01-17T09:00:14.195Z,99299.75
2023-01-17T09:04:26.770Z,99299.91
2023-01-17T09:08:42.006Z,99291.97
2023-01-17T09:12:54.402Z,99290.09
2023-01-17T09:17:07.351Z,99287.09
2023-01-17T09:21:20.046Z,99286.97
2023-01-17T09:25:32.440Z,99285.53
2023-01-17T09:29:44.794Z,99279.28
2023-01-17T09:33:59.076Z,99285.63
2023-01-17T09:38:12.073Z,99272.31
2023-01-17T09:42:36.480Z,99274.50
2023-01-17T09:46:50.490Z,99257.44
2023-01-17T09:51:16.238Z,99253.63
2023-01-17T09:55:37.746Z,99248.16
2023-01-17T10:00:04.898Z,99240.19
2023-01-17T10:04:41.612Z,99235.56
2023-01-17T10:09:16.468Z,99223.56
2023-01-17T10:13:50.477Z,99221.72
2023-01-17T10:18:29.861Z,99226.69
2023-01-17T10:22:43.441Z,99218.91
2023-01-17T10:26:58.590Z,99215.38
2023-01-17T10:31:19.543Z,99190.06
2023-01-17T10:35:37.306Z,99197.84
2023-01-17T10:39:52.995Z,99177.28
2023-01-17T10:44:17.158Z,99185.53
2023-01-17T10:48:39.003Z,99183.50
2023-01-17T10:53:31.316Z,99171.28
2023-01-17T10:57:49.355Z,99151.53
2023-01-17T11:02:07.704Z,99150.59
2023-01-17T11:06:27.678Z,99146.00
2023-01-17T11:10:43.679Z,99132.56
2023-01-17T11:15:11.210Z,99130.91
2023-01-17T11:19:30.775Z,99114.19
2023-01-17T11:23:46.193Z,99116.06
2023-01-17T11:28:02.876Z,99112.34
2023-01-17T11:32:29.744Z,99112.34
2023-01-17T11:36:42.472Z,99107.81
2023-01-17T11:41:14.801Z,99098.56
2023-01-17T11:45:30.209Z,99093.03
2023-01-17T11:49:48.310Z,99082.53
2023-01-17T11:54:09.534Z,99090.81
2023-01-17T11:58:24.333Z,99076.78
2023-01-17T12:03:10.727Z,99083.59
2023-01-17T12:08:01.725Z,99075.16
2023-01-17T12:12:55.049Z,99065.06
2023-01-17T12:17:19.889Z,99064.44
2023-01-17T12:21:50.870Z,99056.69
2023-01-17T12:26:26.108Z,99051.16
2023-01-17T12:31:07.470Z,99061.06
2023-01-17T12:35:27.319Z,99055.31
2023-01-17T12:39:54.741Z,99040.19
2023-01-17T12:44:17.153Z,99040.97
2023-01-17T12:48:36.341Z,99042.78
2023-01-17T12:53:10.942Z,99038.19
2023-01-17T12:57:32.373Z,99030.00
2023-01-17T13:01:57.962Z,99012.75
2023-01-17T13:06:22.530Z,99004.94
2023-01-17T13:10:57.351Z,99012.69
2023-01-17T13:15:29.284Z,99013.56
2023-01-17T13:19:57.981Z,99009.50
2023-01-17T13:24:23.055Z,98987.28
2023-01-17T13:29:21.266Z,99000.78
2023-01-17T13:34:20.168Z,98991.84
2023-01-17T13:38:55.089Z,99037.97
2023-01-17T13:43:19.063Z,99027.53
2023-01-17T13:47:37.587Z,99027.06
2023-01-17T13:52:02.181Z,99034.56
2023-01-17T13:56:27.468Z,99040.91
2023-01-17T14:00:45.712Z,99034.97
2023-01-17T14:05:16.247Z,99037.88
2023-01-17T14:09:37.866Z,99030.41
2023-01-17T14:13:52.125Z,99024.78
2023-01-17T14:18:07.697Z,99024.06
2023-01-17T14:22:24.279Z,99024.44
2023-01-17T14:26:44.036Z,99023.88
2023-01-17T14:30:58.267Z,99015.88
2023-01-17T14:35:22.529Z,99022.44
2023-01-17T14:39:44.558Z,99006.38
2023-01-17T14:44:00.245Z,98991.84
2023-01-17T14:48:19.960Z,99005.72
2023-01-17T14:52:32.341Z,99002.13
2023-01-17T14:56:45.008Z,99010.03
2023-01-17T15:01:01.456Z,99000.31
2023-01-17T15:05:16.333Z,98991.22
2023-01-17T15:09:38.510Z,98983.63
2023-01-17T15:13:55.156Z,99006.97
2023-01-17T15:18:27.002Z,99008.13
2023-01-17T15:22:39.529Z,99004.28
2023-01-17T15:26:52.553Z,98993.13
2023-01-17T15:31:20.448Z,98979.91
2023-01-17T15:35:32.885Z,98994.72
2023-01-17T15:39:49.895Z,98997.91
2023-01-17T15:44:03.108Z,98978.59
2023-01-17T15:48:42.046Z,98966.94
2023-01-17T15:53:05.041Z,98943.84
2023-01-17T15:57:25.000Z,98932.81
2023-01-17T16:01:38.968Z,98933.50
2023-01-17T16:06:29.664Z,98933.84
2023-01-17T16:10:44.081Z,98930.50
2023-01-17T16:15:11.228Z,98935.50
2023-01-17T16:19:24.870Z,98944.81
2023-01-17T16:23:37.223Z,98934.56
2023-01-17T16:27:50.333Z,98932.44
2023-01-17T16:32:08.946Z,98926.19
2023-01-17T16:36:23.195Z,98929.09
2023-01-17T16:40:41.559Z,98921.03
2023-01-17T16:44:54.063Z,98916.09
2023-01-17T16:49:06.383Z,98909.19
2023-01-17T16:53:31.781Z,98896.66
2023-01-17T16:57:44.891Z,98909.94
2023-01-17T17:01:58.766Z,98906.47
2023-01-17T17:06:11.844Z,98909.50
2023-01-17T17:10:27.934Z,98906.13
2023-01-17T17:14:43.561Z,98904.44
2023-01-17T17:19:07.067Z,98913.41
2023-01-17T17:23:19.384Z,98910.09
2023-01-17T17:27:31.966Z,98911.56
2023-01-17T17:31:44.446Z,98914.94
2023-01-17T17:36:03.127Z,98926.59
2023-01-17T17:40:15.994Z,98917.88
2023-01-17T17:44:28.612Z,98916.03
2023-01-17T17:48:40.983Z,98900.38
2023-01-17T17:52:53.363Z,98886.56
2023-01-17T17:57:05.817Z,98895.22
2023-01-17T18:01:18.289Z,98890.22
2023-01-17T18:05:30.829Z,98900.22
2023-01-17T18:09:43.618Z,98900.66
2023-01-17T18:13:59.394Z,98895.66
2023-01-17T18:18:11.914Z,98913.38
2023-01-17T18:22:24.669Z,98919.53
2023-01-17T18:26:38.623Z,98934.38
2023-01-17T18:30:51.091Z,98930.41
2023-01-17T18:35:04.231Z,98933.66
2023-01-17T18:39:20.091Z,98938.63
2023-01-17T18:43:32.823Z,98944.03
2023-01-17T18:47:45.278Z,98944.31
2023-01-17T18:51:57.720Z,98949.63
2023-01-17T18:56:12.830Z,98962.72
2023-01-17T19:00:25.186Z,98961.41
2023-01-17T19:04:38.698Z,98954.50
2023-01-17T19:08:54.260Z,58861.09
2023-01-17T19:13:06.775Z,58861.09
2023-01-17T19:17:19.236Z,58861.09
2023-01-17T19:22:31.004Z,58861.09
2023-01-17T19:27:42.371Z,58861.09
2023-01-17T19:32:56.276Z,58861.09
2023-01-17T19:38:07.314Z,58861.09
2023-01-17T19:43:18.454Z,58861.09
2023-01-17T19:48:29.894Z,58861.09
2023-01-17T19:53:41.502Z,58861.09
2023-01-17T19:58:52.657Z,58861.09
2023-01-17T20:04:04.041Z,58861.09
2023-01-17T20:09:14.996Z,58861.09
2023-01-17T20:14:26.006Z,58861.09
2023-01-17T20:19:37.027Z,58861.09
2023-01-17T20:24:48.644Z,58861.09
2023-01-17T20:30:11.118Z,58861.09
2023-01-17T20:35:29.726Z,58861.09
2023-01-17T20:40:41.363Z,58861.09
2023-01-17T20:45:56.112Z,58861.09
2023-01-17T20:51:10.769Z,58861.09
2023-01-17T20:56:21.865Z,58861.09
2023-01-17T21:01:34.662Z,58861.09
2023-01-17T21:06:45.731Z,58861.09
2023-01-17T21:12:01.635Z,58861.09
2023-01-17T21:17:16.377Z,58861.09
2023-01-17T21:22:29.784Z,58861.09
2023-01-17T21:27:40.649Z,58861.09
2023-01-17T21:32:51.537Z,58861.09
2023-01-17T21:38:02.554Z,58861.09
2023-01-17T21:43:15.487Z,58861.09
2023-01-17T21:48:26.974Z,58861.09
2023-01-17T21:53:38.895Z,58861.09
2023-01-17T21:58:54.019Z,58861.09
2023-01-17T22:04:05.042Z,58861.09
2023-01-17T22:09:15.984Z,58861.09
2023-01-17T22:14:29.605Z,58861.09
2023-01-17T22:19:41.344Z,58861.09
2023-01-17T22:24:54.295Z,58861.09
2023-01-17T22:30:05.692Z,58861.09
2023-01-17T22:35:16.614Z,58861.09
2023-01-17T22:40:28.139Z,58861.09
2023-01-17T22:45:39.111Z,58861.09
2023-01-17T22:50:50.055Z,58861.09
2023-01-17T22:56:05.437Z,58861.09
2023-01-17T23:01:17.404Z,58861.09
2023-01-17T23:06:30.799Z,58861.09
2023-01-17T23:11:43.556Z,58861.09
2023-01-17T23:17:14.427Z,58861.09
2023-01-17T23:22:27.233Z,58861.09
2023-01-17T23:28:00.628Z,58861.09
2023-01-17T23:33:13.227Z,58861.09
2023-01-17T23:38:31.024Z,58861.09
2023-01-17T23:43:41.920Z,58861.09
2023-01-17T23:48:53.170Z,58861.09
2023-01-17T23:54:05.696Z,58861.09
2023-01-17T23:59:17.134Z,58861.09
